createdAt,value
2024-01-14T00:01:36.300Z,3.20
2024-01-14T00:04:03.949Z,3.25
2024-01-14T00:06:31.591Z,2.70
2024-01-14T00:08:59.175Z,2.85
2024-01-14T00:11:28.381Z,2.93
2024-01-14T00:13:55.919Z,2.42
2024-01-14T00:16:23.591Z,1.45
2024-01-14T00:18:51.395Z,2.30
2024-01-14T00:21:19.023Z,3.00
2024-01-14T00:23:46.671Z,2.90
2024-01-14T00:26:14.613Z,2.03
2024-01-14T00:28:42.160Z,3.13
2024-01-14T00:31:09.707Z,2.30
2024-01-14T00:33:37.413Z,2.10
2024-01-14T00:36:05.491Z,3.72
2024-01-14T00:38:33.076Z,2.60
2024-01-14T00:41:01.023Z,3.03
2024-01-14T00:43:28.610Z,2.50
2024-01-14T00:45:56.069Z,3.43
2024-01-14T00:48:23.781Z,1.52
2024-01-14T00:50:51.739Z,3.65
2024-01-14T00:53:19.307Z,3.75
2024-01-14T00:55:46.918Z,2.88
2024-01-14T00:58:16.055Z,2.58
2024-01-14T01:00:43.832Z,2.40
2024-01-14T01:03:11.564Z,3.20
2024-01-14T01:05:40.874Z,1.77
2024-01-14T01:08:08.467Z,1.97
2024-01-14T01:10:36.005Z,1.80
2024-01-14T01:13:03.499Z,1.97
2024-01-14T01:15:31.118Z,1.35
2024-01-14T01:17:58.752Z,4.43
2024-01-14T01:20:26.617Z,2.58
2024-01-14T01:22:54.155Z,1.80
2024-01-14T01:25:21.648Z,1.45
2024-01-14T01:27:49.204Z,3.05
2024-01-14T01:30:17.217Z,3.00
2024-01-14T01:32:45.024Z,2.03
2024-01-14T01:35:12.667Z,5.13
2024-01-14T01:37:40.154Z,1.97
2024-01-14T01:40:10.424Z,2.88
2024-01-14T01:42:37.994Z,3.15
2024-01-14T01:45:05.703Z,2.40
2024-01-14T01:47:33.237Z,2.08
2024-01-14T01:50:00.934Z,3.30
2024-01-14T01:52:28.941Z,2.85
2024-01-14T01:54:58.519Z,3.75
2024-01-14T01:57:27.128Z,2.38
2024-01-14T02:02:23.179Z,1.85
2024-01-14T02:07:18.611Z,4.83
2024-01-14T02:09:46.310Z,1.45
2024-01-14T02:12:15.744Z,2.23
2024-01-14T02:14:43.333Z,2.55
2024-01-14T02:17:10.818Z,3.17
2024-01-14T02:19:38.480Z,2.42
2024-01-14T02:22:09.481Z,1.90
2024-01-14T02:24:37.601Z,0.98
2024-01-14T02:27:04.998Z,2.63
2024-01-14T02:29:32.770Z,1.48
2024-01-14T02:32:00.862Z,3.33
2024-01-14T02:34:28.544Z,1.25
2024-01-14T02:36:56.249Z,2.33
2024-01-14T02:39:23.874Z,3.93
2024-01-14T02:41:51.470Z,3.47
2024-01-14T02:44:18.998Z,1.97
2024-01-14T02:46:46.515Z,2.40
2024-01-14T02:49:14.787Z,1.92
2024-01-14T02:51:42.483Z,1.48
2024-01-14T02:54:10.158Z,2.57
2024-01-14T02:56:37.809Z,2.23
2024-01-14T02:59:05.881Z,2.40
2024-01-14T03:01:33.504Z,2.10
2024-01-14T03:04:01.373Z,4.33
2024-01-14T03:06:29.099Z,1.60
2024-01-14T03:08:56.692Z,1.48
2024-01-14T03:11:24.281Z,2.60
2024-01-14T03:13:51.806Z,1.93
2024-01-14T03:16:20.008Z,1.75
2024-01-14T03:18:48.112Z,2.70
2024-01-14T03:21:19.981Z,3.03
2024-01-14T03:23:47.867Z,1.17
2024-01-14T03:26:15.338Z,1.95
2024-01-14T03:28:43.222Z,3.10
2024-01-14T03:31:14.895Z,3.40
2024-01-14T03:33:43.605Z,2.13
2024-01-14T03:36:20.258Z,1.67
2024-01-14T03:38:47.869Z,3.97
2024-01-14T03:41:15.326Z,1.90
2024-01-14T03:43:43.632Z,1.77
2024-01-14T03:46:11.196Z,3.08
2024-01-14T03:48:40.058Z,0.80
2024-01-14T03:51:07.680Z,2.35
2024-01-14T03:53:35.213Z,2.50
2024-01-14T03:56:02.732Z,2.95
2024-01-14T03:58:30.177Z,1.48
2024-01-14T04:00:57.713Z,1.95
2024-01-14T04:03:25.406Z,2.00
2024-01-14T04:05:53.012Z,2.65
2024-01-14T04:08:20.498Z,1.57
2024-01-14T04:10:47.973Z,3.00
2024-01-14T04:13:15.464Z,2.10
2024-01-14T04:15:43.190Z,2.20
2024-01-14T04:18:11.109Z,1.73
2024-01-14T04:20:40.416Z,1.98
2024-01-14T04:23:07.984Z,1.83
2024-01-14T04:25:35.491Z,4.43
2024-01-14T04:28:03.682Z,3.40
2024-01-14T04:30:31.439Z,1.58
2024-01-14T04:32:59.548Z,1.65
2024-01-14T04:35:27.421Z,4.80
2024-01-14T04:37:55.456Z,2.13
2024-01-14T04:42:50.800Z,2.78
2024-01-14T04:45:18.404Z,5.22
2024-01-14T04:47:45.951Z,2.85
2024-01-14T04:50:13.957Z,2.20
2024-01-14T04:52:41.737Z,1.33
2024-01-14T04:55:09.345Z,2.55
2024-01-14T04:57:36.921Z,1.93
2024-01-14T05:00:05.222Z,1.53
2024-01-14T05:02:32.691Z,0.88
2024-01-14T05:05:00.259Z,3.92
2024-01-14T05:07:27.821Z,1.63
2024-01-14T05:09:55.392Z,1.63
2024-01-14T05:12:23.259Z,1.80
2024-01-14T05:14:51.037Z,2.17
2024-01-14T05:17:18.733Z,3.38
2024-01-14T05:19:46.592Z,4.13
2024-01-14T05:22:14.610Z,3.00
2024-01-14T05:24:46.165Z,1.63
2024-01-14T05:27:15.194Z,3.47
2024-01-14T05:29:43.322Z,2.13
2024-01-14T05:32:15.286Z,2.78
2024-01-14T05:34:46.045Z,2.85
2024-01-14T05:37:14.374Z,2.20
2024-01-14T05:39:41.949Z,3.50
2024-01-14T05:42:09.476Z,1.80
2024-01-14T05:44:37.080Z,1.70
2024-01-14T05:47:04.638Z,2.53
2024-01-14T05:49:32.215Z,1.73
2024-01-14T05:51:59.708Z,4.50
2024-01-14T05:54:27.296Z,2.47
2024-01-14T05:56:55.028Z,3.30
2024-01-14T05:59:22.513Z,3.57
2024-01-14T06:01:50.215Z,1.17
2024-01-14T06:04:17.763Z,1.80
2024-01-14T06:06:45.456Z,1.58
2024-01-14T06:09:14.238Z,1.55
2024-01-14T06:11:41.853Z,1.23
2024-01-14T06:14:09.331Z,0.90
2024-01-14T06:16:40.667Z,0.95
2024-01-14T06:19:08.914Z,1.30
2024-01-14T06:21:42.381Z,1.55
2024-01-14T06:24:10.285Z,2.05
2024-01-14T06:26:37.772Z,1.77
2024-01-14T06:29:05.212Z,2.20
2024-01-14T06:31:32.851Z,0.73
2024-01-14T06:34:00.966Z,1.30
2024-01-14T06:36:28.753Z,0.90
2024-01-14T06:38:56.309Z,1.92
2024-01-14T06:41:29.201Z,0.32
2024-01-14T06:43:56.692Z,0.80
2024-01-14T06:46:24.433Z,0.98
2024-01-14T06:48:52.079Z,1.17
2024-01-14T06:51:19.733Z,0.80
2024-01-14T06:53:47.310Z,1.33
2024-01-14T06:56:17.762Z,1.98
2024-01-14T06:58:45.576Z,0.80
2024-01-14T07:01:15.105Z,0.47
2024-01-14T07:03:42.863Z,0.98
2024-01-14T07:06:10.830Z,3.55
2024-01-14T07:08:38.416Z,1.23
2024-01-14T07:11:06.828Z,1.15
2024-01-14T07:13:34.663Z,1.13
2024-01-14T07:16:02.110Z,0.50
2024-01-14T07:18:29.777Z,1.33
2024-01-14T07:20:57.461Z,2.50
2024-01-14T07:23:42.963Z,0.33
2024-01-14T07:26:22.553Z,0.57
2024-01-14T07:28:54.311Z,0.50
2024-01-14T07:31:23.223Z,1.30
2024-01-14T07:33:53.030Z,0.68
2024-01-14T07:36:21.602Z,0.93
2024-01-14T07:38:49.420Z,0.22
2024-01-14T07:41:17.343Z,0.73
2024-01-14T07:43:45.175Z,0.52
2024-01-14T07:46:13.950Z,1.45
2024-01-14T07:48:42.777Z,0.45
2024-01-14T07:51:10.972Z,0.22
2024-01-14T07:53:38.599Z,1.02
2024-01-14T07:56:06.490Z,0.70
2024-01-14T07:58:33.991Z,1.10
2024-01-14T08:01:03.258Z,0.95
2024-01-14T08:03:32.813Z,0.55
2024-01-14T08:06:01.494Z,0.68
2024-01-14T08:08:29.474Z,0.43
2024-01-14T08:10:57.183Z,1.10
2024-01-14T08:13:24.954Z,2.38
2024-01-14T08:15:57.878Z,1.67
2024-01-14T08:18:31.494Z,0.40
2024-01-14T08:21:00.196Z,1.65
2024-01-14T08:23:28.204Z,0.93
2024-01-14T08:25:57.791Z,1.42
2024-01-14T08:28:25.605Z,0.98
2024-01-14T08:30:53.171Z,0.57
2024-01-14T08:33:20.898Z,0.50
2024-01-14T08:35:48.421Z,3.33
2024-01-14T08:38:18.009Z,0.85
2024-01-14T08:40:45.500Z,1.35
2024-01-14T08:43:14.811Z,1.25
2024-01-14T08:45:42.444Z,1.45
2024-01-14T08:48:11.886Z,1.33
2024-01-14T08:50:40.050Z,0.63
2024-01-14T08:53:07.771Z,0.55
2024-01-14T08:55:35.251Z,0.33
2024-01-14T08:58:02.720Z,1.38
2024-01-14T09:00:30.464Z,1.85
2024-01-14T09:02:58.077Z,0.55
2024-01-14T09:05:25.694Z,1.20
2024-01-14T09:07:53.439Z,1.37
2024-01-14T09:10:21.015Z,2.53
2024-01-14T09:12:48.525Z,0.90
2024-01-14T09:15:16.316Z,1.10
2024-01-14T09:17:43.998Z,0.77
2024-01-14T09:20:11.929Z,1.15
2024-01-14T09:22:40.055Z,1.40
2024-01-14T09:25:08.815Z,0.85
2024-01-14T09:27:36.882Z,1.38
2024-01-14T09:30:04.661Z,0.60
2024-01-14T09:32:32.302Z,1.10
2024-01-14T09:34:59.881Z,1.13
2024-01-14T09:37:27.389Z,1.10
2024-01-14T09:39:54.783Z,1.50
2024-01-14T09:42:29.658Z,1.15
2024-01-14T09:45:03.461Z,1.15
2024-01-14T09:47:31.987Z,1.33
2024-01-14T09:50:00.073Z,2.10
2024-01-14T09:52:29.518Z,1.20
2024-01-14T09:54:57.166Z,1.10
2024-01-14T09:57:25.705Z,0.87
2024-01-14T10:02:21.238Z,0.90
2024-01-14T10:04:48.911Z,1.60
2024-01-14T10:07:17.030Z,1.00
2024-01-14T10:09:45.030Z,0.88
2024-01-14T10:12:15.214Z,1.58
2024-01-14T10:14:42.976Z,1.20
2024-01-14T10:17:11.025Z,1.10
2024-01-14T10:19:39.042Z,1.90
2024-01-14T10:22:15.417Z,1.85
2024-01-14T10:24:54.917Z,2.00
2024-01-14T10:27:34.432Z,1.83
2024-01-14T10:30:06.399Z,1.40
2024-01-14T10:33:15.041Z,1.63
2024-01-14T10:35:22.712Z,2.95
2024-01-14T10:37:50.353Z,1.80
2024-01-14T10:40:21.287Z,1.75
2024-01-14T10:42:48.863Z,2.25
2024-01-14T10:45:16.641Z,2.03
2024-01-14T10:47:48.093Z,1.75
2024-01-14T10:50:19.396Z,1.83
2024-01-14T10:52:49.531Z,2.28
2024-01-14T10:55:37.702Z,1.10
2024-01-14T10:58:05.715Z,1.13
2024-01-14T11:00:37.745Z,1.90
2024-01-14T11:03:07.877Z,1.02
2024-01-14T11:05:36.547Z,0.80
2024-01-14T11:10:33.334Z,1.33
2024-01-14T11:13:11.738Z,3.53
2024-01-14T11:15:46.791Z,2.25
2024-01-14T11:18:19.706Z,1.73
2024-01-14T11:21:00.233Z,3.05
2024-01-14T11:23:36.204Z,3.58
2024-01-14T11:26:03.843Z,1.73
2024-01-14T11:28:31.693Z,3.13
2024-01-14T11:31:03.041Z,2.30
2024-01-14T11:33:40.803Z,1.85
2024-01-14T11:36:09.291Z,3.10
2024-01-14T11:38:56.126Z,2.63
2024-01-14T11:41:30.127Z,2.08
2024-01-14T11:43:58.830Z,1.88
2024-01-14T11:46:43.789Z,1.50
2024-01-14T11:52:00.641Z,1.50
2024-01-14T11:54:28.898Z,0.40
2024-01-14T11:56:56.665Z,1.00
2024-01-14T12:01:54.828Z,0.38
2024-01-14T12:04:26.458Z,0.27
2024-01-14T12:06:54.123Z,0.45
2024-01-14T12:09:21.599Z,0.47
2024-01-14T12:11:49.530Z,0.88
2024-01-14T12:14:17.073Z,1.77
2024-01-14T12:16:45.050Z,0.40
2024-01-14T12:19:15.254Z,1.40
2024-01-14T12:21:43.090Z,1.85
2024-01-14T12:24:10.597Z,1.20
2024-01-14T12:26:38.190Z,1.25
2024-01-14T12:29:05.874Z,1.00
2024-01-14T12:31:46.088Z,0.80
2024-01-14T12:34:21.076Z,0.63
2024-01-14T12:36:53.654Z,0.83
2024-01-14T12:39:28.122Z,0.65
2024-01-14T12:41:56.036Z,0.68
2024-01-14T12:44:26.583Z,0.40
2024-01-14T12:47:07.244Z,3.58
2024-01-14T12:49:34.936Z,1.40
2024-01-14T12:52:06.946Z,2.03
2024-01-14T12:54:37.845Z,1.23
2024-01-14T12:57:16.760Z,2.08
2024-01-14T12:59:50.347Z,0.85
2024-01-14T13:02:18.167Z,1.53
2024-01-14T13:04:45.873Z,1.13
2024-01-14T13:07:14.632Z,0.75
2024-01-14T13:09:42.902Z,0.90
2024-01-14T13:12:10.870Z,1.55
2024-01-14T13:14:38.333Z,1.00
2024-01-14T13:17:06.801Z,1.42
2024-01-14T13:19:34.425Z,1.23
2024-01-14T13:22:02.038Z,0.77
2024-01-14T13:24:31.620Z,1.42
2024-01-14T13:26:59.775Z,2.67
2024-01-14T13:29:27.594Z,1.77
2024-01-14T13:31:55.262Z,1.52
2024-01-14T13:34:23.980Z,3.13
2024-01-14T13:36:51.784Z,2.10
2024-01-14T13:39:19.601Z,2.27
2024-01-14T13:41:47.411Z,1.10
2024-01-14T13:44:18.059Z,1.00
2024-01-14T13:46:48.008Z,1.85
2024-01-14T13:49:16.511Z,1.15
2024-01-14T13:51:44.362Z,1.70
2024-01-14T13:54:15.128Z,3.97
2024-01-14T13:56:43.920Z,1.27
2024-01-14T14:01:41.519Z,1.08
2024-01-14T14:04:10.468Z,0.95
2024-01-14T14:06:39.443Z,0.90
2024-01-14T14:09:10.664Z,1.00
2024-01-14T14:11:41.450Z,1.23
2024-01-14T14:14:09.345Z,0.98
2024-01-14T14:16:41.547Z,0.82
2024-01-14T14:19:12.564Z,2.00
2024-01-14T14:21:53.796Z,1.13
2024-01-14T14:24:35.701Z,1.95
2024-01-14T14:27:03.490Z,1.40
2024-01-14T14:29:31.267Z,1.40
2024-01-14T14:31:59.120Z,1.10
2024-01-14T14:34:27.584Z,2.00
2024-01-14T14:39:22.813Z,1.43
2024-01-14T14:41:50.353Z,2.17
2024-01-14T14:44:18.030Z,1.63
2024-01-14T14:46:45.880Z,1.83
2024-01-14T14:49:14.880Z,2.80
2024-01-14T14:51:42.850Z,1.73
2024-01-14T14:54:11.532Z,1.75
2024-01-14T14:56:41.580Z,1.38
2024-01-14T14:59:10.395Z,1.85
2024-01-14T15:01:43.143Z,1.73
2024-01-14T15:04:16.113Z,1.30
2024-01-14T15:06:46.164Z,2.17
2024-01-14T15:09:15.937Z,1.30
2024-01-14T15:11:46.480Z,1.65
2024-01-14T15:14:15.007Z,3.08
2024-01-14T15:19:10.966Z,3.33
2024-01-14T15:21:38.832Z,3.15
2024-01-14T15:24:06.480Z,3.08
2024-01-14T15:26:34.169Z,3.20
2024-01-14T15:29:01.613Z,3.55
2024-01-14T15:31:29.452Z,2.55
2024-01-14T15:33:57.565Z,3.25
2024-01-14T15:36:25.731Z,2.35
2024-01-14T15:38:53.488Z,3.50
2024-01-14T15:41:22.392Z,1.73
2024-01-14T15:43:50.000Z,2.00
2024-01-14T15:46:17.568Z,2.13
2024-01-14T15:48:45.781Z,2.40
2024-01-14T15:51:15.550Z,3.15
2024-01-14T15:53:43.912Z,3.00
2024-01-14T15:56:11.649Z,3.17
2024-01-14T15:58:42.439Z,2.92
2024-01-14T16:01:13.321Z,2.28
2024-01-14T16:03:46.516Z,2.45
2024-01-14T16:06:16.580Z,2.80
2024-01-14T16:08:48.097Z,2.55
2024-01-14T16:11:18.398Z,2.53
2024-01-14T16:13:46.046Z,3.67
2024-01-14T16:16:13.915Z,2.17
2024-01-14T16:18:41.391Z,3.58
2024-01-14T16:21:09.307Z,3.58
2024-01-14T16:23:38.624Z,2.53
2024-01-14T16:26:07.319Z,3.15
2024-01-14T16:28:34.793Z,4.75
2024-01-14T16:31:10.793Z,3.67
2024-01-14T16:33:43.051Z,3.80
2024-01-14T16:36:12.243Z,4.18
2024-01-14T16:38:40.184Z,3.55
2024-01-14T16:41:08.673Z,4.18
2024-01-14T16:43:37.185Z,3.00
2024-01-14T16:48:33.168Z,5.95
2024-01-14T16:51:07.841Z,7.63
2024-01-14T16:53:39.442Z,10.53
2024-01-14T16:56:08.386Z,9.57
2024-01-14T16:58:36.393Z,5.28
2024-01-14T17:01:14.374Z,3.88
2024-01-14T17:03:48.713Z,3.67
2024-01-14T17:06:17.901Z,3.88
2024-01-14T17:08:47.511Z,4.38
2024-01-14T17:11:16.297Z,3.95
2024-01-14T17:13:44.476Z,4.93
2024-01-14T17:16:27.011Z,4.53
2024-01-14T17:18:59.444Z,4.18
2024-01-14T17:21:28.687Z,3.33
2024-01-14T17:23:56.822Z,3.78
2024-01-14T17:26:24.487Z,3.00
2024-01-14T17:28:52.623Z,4.40
2024-01-14T17:31:20.995Z,3.42
2024-01-14T17:36:17.655Z,3.78
2024-01-14T17:43:42.340Z,5.43
2024-01-14T17:46:10.905Z,4.82
2024-01-14T17:48:40.258Z,6.10
2024-01-14T17:51:11.994Z,12.02
2024-01-14T17:53:42.403Z,4.13
2024-01-14T17:56:10.097Z,4.80
2024-01-14T17:58:37.715Z,3.97
2024-01-14T18:01:11.042Z,4.20
2024-01-14T18:03:41.617Z,4.07
2024-01-14T18:06:15.721Z,5.00
2024-01-14T18:08:44.193Z,3.38
2024-01-14T18:11:11.928Z,3.17
2024-01-14T18:13:40.780Z,4.93
2024-01-14T18:16:08.325Z,2.63
2024-01-14T18:18:39.507Z,2.70
2024-01-14T18:21:07.277Z,3.25
2024-01-14T18:23:34.819Z,2.35
2024-01-14T18:26:04.021Z,3.30
2024-01-14T18:28:31.587Z,3.30
2024-01-14T18:30:59.334Z,3.05
2024-01-14T18:33:27.017Z,3.23
2024-01-14T18:35:54.688Z,5.03
2024-01-14T18:38:22.269Z,4.60
2024-01-14T18:40:49.793Z,6.07
2024-01-14T18:43:19.471Z,3.65
2024-01-14T18:45:47.256Z,2.83
2024-01-14T18:48:16.085Z,2.20
2024-01-14T18:50:43.860Z,3.35
2024-01-14T18:53:11.340Z,4.07
2024-01-14T18:55:41.214Z,4.22
2024-01-14T18:58:13.962Z,3.88
2024-01-14T19:00:41.776Z,4.50
2024-01-14T19:03:09.424Z,5.22
2024-01-14T19:05:39.190Z,4.25
2024-01-14T19:08:06.909Z,4.55
2024-01-14T19:10:34.365Z,4.33
2024-01-14T19:13:02.248Z,5.25
2024-01-14T19:15:29.834Z,5.50
2024-01-14T19:17:57.512Z,3.72
2024-01-14T19:20:25.155Z,4.80
2024-01-14T19:22:52.785Z,3.30
2024-01-14T19:25:20.341Z,4.53
2024-01-14T19:27:49.143Z,4.32
2024-01-14T19:30:17.376Z,4.30
2024-01-14T19:32:45.215Z,4.75
2024-01-14T19:35:13.119Z,3.50
2024-01-14T19:37:40.673Z,2.92
2024-01-14T19:40:08.466Z,2.50
2024-01-14T19:42:35.966Z,2.85
2024-01-14T19:45:03.457Z,3.95
2024-01-14T19:47:31.245Z,3.25
2024-01-14T19:49:59.214Z,2.03
2024-01-14T19:52:27.058Z,2.55
2024-01-14T19:54:54.651Z,2.57
2024-01-14T19:57:22.519Z,2.70
2024-01-14T19:59:50.118Z,3.15
2024-01-14T20:02:17.775Z,2.10
2024-01-14T20:04:45.405Z,1.73
2024-01-14T20:07:13.982Z,3.43
2024-01-14T20:09:41.571Z,2.45
2024-01-14T20:12:09.214Z,2.37
2024-01-14T20:14:42.494Z,3.37
2024-01-14T20:17:11.942Z,3.20
2024-01-14T20:19:41.261Z,4.57
2024-01-14T20:22:09.473Z,2.78
2024-01-14T20:24:39.206Z,3.45
2024-01-14T20:27:08.016Z,1.77
2024-01-14T20:29:36.840Z,2.83
2024-01-14T20:32:04.446Z,2.60
2024-01-14T20:34:37.039Z,2.00
2024-01-14T20:37:04.773Z,3.85
2024-01-14T20:39:32.637Z,3.27
2024-01-14T20:42:03.768Z,3.70
2024-01-14T20:44:31.425Z,3.90
2024-01-14T20:46:59.674Z,2.25
2024-01-14T20:49:27.986Z,3.10
2024-01-14T20:51:55.911Z,2.15
2024-01-14T20:54:25.895Z,2.13
2024-01-14T20:56:54.119Z,3.25
2024-01-14T20:59:22.300Z,5.53
2024-01-14T21:01:50.436Z,5.57
2024-01-14T21:04:18.186Z,4.40
2024-01-14T21:06:46.038Z,4.68
2024-01-14T21:09:14.609Z,3.25
2024-01-14T21:14:09.610Z,4.97
2024-01-14T21:16:37.209Z,7.70
2024-01-14T21:19:04.940Z,8.30
2024-01-14T21:21:32.738Z,10.68
2024-01-14T21:24:04.053Z,5.60
2024-01-14T21:26:31.580Z,4.95
2024-01-14T21:29:03.475Z,3.50
2024-01-14T21:31:31.175Z,4.07
2024-01-14T21:33:58.870Z,2.60
2024-01-14T21:36:26.762Z,3.08
2024-01-14T21:38:56.601Z,2.73
2024-01-14T21:41:24.164Z,2.33
2024-01-14T21:43:51.835Z,1.45
2024-01-14T21:46:19.351Z,2.83
2024-01-14T21:48:47.737Z,2.35
2024-01-14T21:51:16.815Z,1.70
2024-01-14T21:53:44.383Z,3.20
2024-01-14T21:56:11.912Z,1.30
2024-01-14T21:58:41.465Z,2.30
2024-01-14T22:01:09.412Z,2.17
2024-01-14T22:03:37.372Z,2.38
2024-01-14T22:06:08.076Z,1.58
2024-01-14T22:08:36.246Z,1.98
2024-01-14T22:11:03.795Z,3.08
2024-01-14T22:13:31.279Z,0.83
2024-01-14T22:15:59.045Z,2.45
2024-01-14T22:18:26.967Z,0.60
2024-01-14T22:20:55.431Z,1.52
2024-01-14T22:23:22.910Z,1.63
2024-01-14T22:25:50.462Z,1.42
2024-01-14T22:28:18.743Z,1.43
2024-01-14T22:30:47.722Z,1.00
2024-01-14T22:33:15.980Z,1.58
2024-01-14T22:35:43.626Z,1.73
2024-01-14T22:38:13.987Z,1.70
2024-01-14T22:40:42.762Z,1.30
2024-01-14T22:43:10.323Z,0.50
2024-01-14T22:45:38.657Z,1.55
2024-01-14T22:50:36.629Z,1.75
2024-01-14T22:53:04.336Z,1.75
2024-01-14T22:55:31.855Z,1.95
2024-01-14T22:57:59.494Z,1.88
2024-01-14T23:00:29.278Z,3.72
2024-01-14T23:02:57.186Z,1.30
2024-01-14T23:05:24.787Z,1.27
2024-01-14T23:07:52.345Z,1.20
2024-01-14T23:10:20.003Z,0.77
2024-01-14T23:12:47.545Z,2.47
2024-01-14T23:15:15.249Z,1.00
2024-01-14T23:17:42.940Z,1.50
2024-01-14T23:20:10.519Z,2.13
